createdAt,value
2019-02-15T00:00:51.476Z,82.69
2019-02-15T00:06:56.029Z,82.19
2019-02-15T00:13:00.672Z,81.55
2019-02-15T00:19:06.935Z,81.86
2019-02-15T00:25:11.567Z,81.99
2019-02-15T00:31:17.762Z,81.14
2019-02-15T00:37:22.311Z,81.85
2019-02-15T00:43:26.856Z,82.19
2019-02-15T00:49:33.060Z,82.46
2019-02-15T00:55:54.887Z,83.04
2019-02-15T01:02:16.622Z,84.05
2019-02-15T01:08:34.596Z,83.51
2019-02-15T01:14:40.898Z,82.58
2019-02-15T01:20:45.828Z,82.10
2019-02-15T01:26:55.056Z,82.51
2019-02-15T01:33:01.304Z,83.03
2019-02-15T01:39:10.646Z,83.27
2019-02-15T01:45:16.962Z,81.92
2019-02-15T01:51:22.460Z,82.81
2019-02-15T01:57:28.671Z,83.64
2019-02-15T02:03:33.349Z,82.77
2019-02-15T02:09:37.979Z,82.60
2019-02-15T02:15:42.548Z,83.34
2019-02-15T02:21:48.205Z,82.86
2019-02-15T02:27:52.758Z,83.29
2019-02-15T02:33:57.319Z,84.29
2019-02-15T02:40:01.875Z,84.92
2019-02-15T02:46:06.421Z,83.78
2019-02-15T02:52:11.034Z,83.32
2019-02-15T02:58:15.670Z,83.65
2019-02-15T03:04:20.273Z,84.84
2019-02-15T03:10:24.842Z,83.76
2019-02-15T03:16:29.421Z,83.53
2019-02-15T03:22:33.949Z,83.90
2019-02-15T03:28:38.494Z,83.90
2019-02-15T03:34:43.296Z,83.63
2019-02-15T03:40:47.931Z,83.98
2019-02-15T03:46:52.475Z,83.34
2019-02-15T03:52:57.173Z,83.36
2019-02-15T03:59:06.250Z,83.58
2019-02-15T04:05:10.864Z,83.59
2019-02-15T04:11:15.430Z,82.72
2019-02-15T04:17:19.983Z,83.56
2019-02-15T04:23:24.540Z,83.86
2019-02-15T04:29:30.141Z,84.18
2019-02-15T04:35:34.736Z,83.87
2019-02-15T04:41:39.347Z,83.79
2019-02-15T04:47:45.241Z,83.95
2019-02-15T04:53:49.778Z,84.08
2019-02-15T04:59:54.348Z,84.46
2019-02-15T05:05:58.925Z,84.35
2019-02-15T05:12:03.451Z,84.55
2019-02-15T05:18:08.014Z,84.50
2019-02-15T05:24:12.554Z,84.24
2019-02-15T05:30:17.123Z,84.20
2019-02-15T05:36:21.740Z,83.73
2019-02-15T05:42:26.283Z,83.74
2019-02-15T05:48:30.978Z,83.41
2019-02-15T05:54:36.305Z,84.10
2019-02-15T06:00:40.933Z,84.01
2019-02-15T06:06:45.503Z,84.41
2019-02-15T06:12:50.824Z,84.73
2019-02-15T06:18:55.386Z,84.61
2019-02-15T06:25:00.036Z,85.72
2019-02-15T06:31:04.610Z,85.58
2019-02-15T06:37:09.198Z,85.63
2019-02-15T06:43:13.759Z,85.12
2019-02-15T06:49:18.323Z,85.38
2019-02-15T06:55:22.893Z,84.89
2019-02-15T07:01:31.586Z,85.00
2019-02-15T07:07:36.214Z,85.07
2019-02-15T07:13:40.797Z,85.24
2019-02-15T07:19:45.427Z,85.83
2019-02-15T07:25:49.987Z,85.25
2019-02-15T07:31:56.450Z,85.51
2019-02-15T07:38:01.012Z,85.15
2019-02-15T07:44:05.576Z,84.96
2019-02-15T07:50:14.811Z,85.29
2019-02-15T07:56:19.450Z,85.12
2019-02-15T08:02:24.027Z,84.71
2019-02-15T08:08:28.663Z,85.20
2019-02-15T08:14:33.340Z,85.34
2019-02-15T08:20:37.916Z,85.39
2019-02-15T08:26:42.460Z,85.51
2019-02-15T08:32:47.098Z,85.21
2019-02-15T08:38:51.695Z,85.18
2019-02-15T08:44:56.225Z,85.13
2019-02-15T08:51:01.249Z,84.96
2019-02-15T08:57:05.800Z,84.21
2019-02-15T09:03:10.471Z,84.35
2019-02-15T09:09:15.249Z,83.74
2019-02-15T09:15:24.451Z,84.03
2019-02-15T09:21:29.002Z,84.34
2019-02-15T09:27:35.281Z,84.19
2019-02-15T09:33:39.978Z,84.05
2019-02-15T09:39:44.518Z,83.61
2019-02-15T09:45:49.049Z,83.82
2019-02-15T09:51:55.893Z,83.33
2019-02-15T09:58:00.454Z,83.25
2019-02-15T10:04:05.009Z,83.02
2019-02-15T10:10:12.548Z,82.57
2019-02-15T10:16:17.074Z,81.73
2019-02-15T10:22:21.669Z,80.01
2019-02-15T10:28:26.193Z,79.41
2019-02-15T10:34:30.739Z,77.12
2019-02-15T10:40:35.307Z,74.78
2019-02-15T10:46:39.886Z,70.75
2019-02-15T10:52:44.444Z,70.32
2019-02-15T10:58:49.001Z,69.11
2019-02-15T11:04:53.579Z,67.74
2019-02-15T11:10:58.116Z,66.32
2019-02-15T11:17:03.231Z,65.47
2019-02-15T11:23:07.902Z,63.75
2019-02-15T11:29:12.544Z,63.29
2019-02-15T11:35:17.182Z,63.16
2019-02-15T11:41:23.676Z,60.35
2019-02-15T11:47:28.567Z,60.95
2019-02-15T11:53:33.123Z,61.43
2019-02-15T11:59:37.660Z,60.17
2019-02-15T12:05:42.193Z,59.41
2019-02-15T12:11:48.083Z,60.00
2019-02-15T12:17:52.637Z,59.45
2019-02-15T12:23:57.369Z,57.88
2019-02-15T12:30:11.274Z,56.54
2019-02-15T12:36:15.852Z,56.84
2019-02-15T12:42:20.438Z,55.72
2019-02-15T12:48:27.549Z,55.07
2019-02-15T12:54:32.106Z,53.99
2019-02-15T13:00:36.671Z,53.83
2019-02-15T13:06:43.096Z,53.80
2019-02-15T13:12:47.570Z,53.53
2019-02-15T13:18:52.153Z,53.26
2019-02-15T13:24:57.500Z,53.52
2019-02-15T13:31:02.048Z,52.32
2019-02-15T13:37:06.607Z,53.16
2019-02-15T13:43:11.169Z,54.38
2019-02-15T13:49:15.756Z,53.92
2019-02-15T13:55:20.388Z,52.98
2019-02-15T14:01:24.998Z,52.85
2019-02-15T14:07:29.575Z,53.81
2019-02-15T14:13:34.131Z,52.88
2019-02-15T14:19:38.812Z,52.91
2019-02-15T14:25:43.396Z,52.47
2019-02-15T14:31:47.962Z,53.16
2019-02-15T14:37:52.580Z,54.09
2019-02-15T14:43:57.145Z,55.54
2019-02-15T14:50:01.714Z,55.20
2019-02-15T14:56:06.561Z,55.75
2019-02-15T15:02:11.125Z,55.80
2019-02-15T15:08:15.681Z,55.30
2019-02-15T15:14:20.249Z,55.35
2019-02-15T15:20:25.742Z,55.50
2019-02-15T15:26:30.300Z,54.86
2019-02-15T15:32:34.914Z,56.39
2019-02-15T15:38:39.589Z,55.79
2019-02-15T15:50:53.867Z,56.18
2019-02-15T15:57:01.751Z,56.16
2019-02-15T16:03:06.426Z,56.94
2019-02-15T16:09:11.036Z,58.00
2019-02-15T16:15:15.759Z,59.79
2019-02-15T16:21:22.044Z,61.02
2019-02-15T16:27:26.705Z,60.68
2019-02-15T16:33:31.420Z,62.06
2019-02-15T16:39:36.314Z,62.87
2019-02-15T16:45:41.181Z,64.66
2019-02-15T16:51:45.728Z,65.92
2019-02-15T16:57:50.273Z,67.02
2019-02-15T17:03:55.834Z,67.60
2019-02-15T17:10:00.377Z,67.39
2019-02-15T17:16:05.558Z,67.79
2019-02-15T17:22:10.147Z,68.83
2019-02-15T17:28:14.700Z,68.38
2019-02-15T17:34:19.249Z,69.02
2019-02-15T17:40:23.791Z,69.16
2019-02-15T17:46:29.928Z,68.97
2019-02-15T17:52:34.811Z,69.51
2019-02-15T17:58:42.591Z,69.90
2019-02-15T18:04:47.164Z,69.88
2019-02-15T18:10:51.720Z,70.02
2019-02-15T18:16:56.281Z,70.00
2019-02-15T18:23:00.822Z,71.53
2019-02-15T18:29:05.524Z,72.25
2019-02-15T18:35:10.065Z,72.76
2019-02-15T18:41:17.306Z,72.17
2019-02-15T18:47:21.849Z,72.05
2019-02-15T18:53:27.004Z,70.91
2019-02-15T18:59:31.618Z,70.40
2019-02-15T19:05:36.240Z,70.83
2019-02-15T19:11:40.797Z,71.08
2019-02-15T19:17:46.516Z,70.52
2019-02-15T19:23:51.052Z,69.92
2019-02-15T19:29:59.690Z,70.24
2019-02-15T19:36:04.494Z,70.68
2019-02-15T19:42:12.378Z,71.56
2019-02-15T19:48:16.941Z,72.19
2019-02-15T19:54:21.509Z,72.75
2019-02-15T20:00:27.481Z,73.19
2019-02-15T20:06:32.046Z,73.63
2019-02-15T20:12:36.895Z,72.43
2019-02-15T20:18:41.452Z,72.17
2019-02-15T20:24:45.984Z,72.37
2019-02-15T20:30:51.860Z,72.19
2019-02-15T20:36:56.490Z,72.62
2019-02-15T20:43:01.053Z,72.31
2019-02-15T20:49:05.663Z,73.49
2019-02-15T20:55:14.048Z,73.10
2019-02-15T21:01:18.594Z,73.59
2019-02-15T21:07:23.141Z,74.24
2019-02-15T21:13:27.687Z,74.16
2019-02-15T21:19:32.248Z,74.49
2019-02-15T21:25:36.809Z,74.35
2019-02-15T21:31:41.366Z,74.94
2019-02-15T21:37:45.983Z,75.71
2019-02-15T21:43:54.244Z,75.89
2019-02-15T21:49:58.794Z,75.54
2019-02-15T21:56:03.337Z,76.10
2019-02-15T22:02:07.955Z,75.25
2019-02-15T22:08:12.512Z,74.78
2019-02-15T22:14:17.063Z,74.68
2019-02-15T22:20:26.624Z,75.11
2019-02-15T22:26:27.891Z,74.75
2019-02-15T22:32:32.499Z,76.90
2019-02-15T22:38:37.058Z,78.42
2019-02-15T22:44:41.687Z,77.31
2019-02-15T22:50:46.318Z,76.67
2019-02-15T22:56:50.850Z,76.34
2019-02-15T23:03:00.644Z,76.62
2019-02-15T23:09:07.766Z,74.97
2019-02-15T23:15:12.293Z,74.70
2019-02-15T23:21:16.844Z,73.21
2019-02-15T23:27:21.410Z,74.61
2019-02-15T23:33:25.984Z,75.58
2019-02-15T23:39:30.542Z,75.13
2019-02-15T23:45:35.079Z,75.00
2019-02-15T23:51:39.626Z,75.47
2019-02-15T23:57:44.167Z,75.64
